»·PEaware :: N565AD KTOA-KBUR

N565AD :: KTOA-KBUR

FLIGHT INFORMATION

Flight Status: Arrived
Operator: Privately registered:
United States
More flights under this callsign
Pilot: Slade E. (12022)
Aircraft: CESSNA 172 SKYHAWK
(C172)
More flights by this aircraft type
Origin: KTOA Zamperini
United States
Destination: KBUR Bob Hope-Burbank
United States
More flights between these airports :: More routes between these airports
Route: LAX170 LIMBO V64 SMO125 SMO SMO311 SILEX
File this flight plan on PilotEdge
Remarks:
Altitude:
(Current/Filed)
4,000ft
Speed:
(Current/Filed)
100kts
Departed: 05-Nov-19 06:39 PM
Arrived: 05-Nov-19 07:28 PM
Distance/Time
Traveled:
24nm/0:49
Distance/Time
To Go:
Arrived

Flight Plot

Page will automatically refresh every two minutes.

Flight plan parsing failed; only flown route is shown


Map Options




Map Legend


Flown Route
Filed Route
Departure Airport
Arrival Airport
Navaid (VOR, NDB)
Fix

Horizontal Profiles

Position Reports

Time Latitude Longitude Heading Altitude Ground
Speed
05-Nov-19 18:15 33.802447 -118.343295 127 98ft 0kts
05-Nov-19 18:16 33.802447 -118.343295 127 98ft 0kts
05-Nov-19 18:17 33.802447 -118.343295 127 98ft 0kts
05-Nov-19 18:18 33.802447 -118.343295 127 98ft 0kts
05-Nov-19 18:19 33.802447 -118.343295 127 98ft 0kts
05-Nov-19 18:20 33.802447 -118.343295 127 98ft 0kts
05-Nov-19 18:21 33.802447 -118.343295 127 98ft 0kts
05-Nov-19 18:22 33.802447 -118.343295 127 98ft 0kts
05-Nov-19 18:23 33.802447 -118.343295 127 98ft 0kts
05-Nov-19 18:24 33.802447 -118.343295 127 98ft 0kts
05-Nov-19 18:25 33.802447 -118.343295 127 98ft 0kts
05-Nov-19 18:25 33.802447 -118.343295 127 98ft 0kts
05-Nov-19 18:26 33.802447 -118.343295 127 98ft 0kts
05-Nov-19 18:28 33.802447 -118.343295 127 98ft 0kts
05-Nov-19 18:29 33.802447 -118.343295 127 98ft 0kts
05-Nov-19 18:29 33.802447 -118.343295 127 98ft 0kts
05-Nov-19 18:30 33.802447 -118.343295 127 98ft 0kts
05-Nov-19 18:31 33.802384 -118.343061 76 98ft 4kts
05-Nov-19 18:32 33.803022 -118.341855 92 98ft 0kts
05-Nov-19 18:33 33.801059 -118.339093 128 98ft 14kts
05-Nov-19 18:34 33.799669 -118.336969 128 98ft 10kts
05-Nov-19 18:35 33.798276 -118.334052 35 98ft 0kts
05-Nov-19 18:36 33.798283 -118.334046 36 98ft 1kts
05-Nov-19 18:37 33.799176 -118.333226 36 98ft 6kts
05-Nov-19 18:38 33.807122 -118.344204 304 324ft 86kts
05-Nov-19 18:39 33.819386 -118.368906 304 1181ft 88kts
05-Nov-19 18:40 33.833376 -118.392567 302 2050ft 85kts
05-Nov-19 18:41 33.846205 -118.415659 301 2934ft 81kts
05-Nov-19 18:42 33.848268 -118.438904 202 3695ft 92kts
05-Nov-19 18:43 33.820369 -118.440254 186 3995ft 106kts
05-Nov-19 18:44 33.791221 -118.444056 192 3994ft 105kts
05-Nov-19 18:45 33.766184 -118.436305 98 3994ft 109kts
05-Nov-19 18:46 33.768307 -118.399784 86 3995ft 110kts
05-Nov-19 18:47 33.769003 -118.362936 88 3995ft 110kts
05-Nov-19 18:48 33.769664 -118.326145 87 3995ft 110kts
05-Nov-19 18:49 33.770355 -118.289236 88 3995ft 110kts
05-Nov-19 18:50 33.771681 -118.252481 65 3991ft 109kts
05-Nov-19 18:51 33.794641 -118.255761 317 3995ft 99kts
05-Nov-19 18:52 33.816102 -118.276674 320 3995ft 99kts
05-Nov-19 18:53 33.838320 -118.296772 321 3995ft 99kts
05-Nov-19 18:54 33.860580 -118.316754 321 3995ft 99kts
05-Nov-19 18:55 33.883923 -118.334993 325 3995ft 100kts
05-Nov-19 18:56 33.907311 -118.353013 325 3995ft 100kts
05-Nov-19 18:57 33.930837 -118.371045 325 3995ft 100kts
05-Nov-19 18:58 33.950046 -118.394634 308 3995ft 99kts
05-Nov-19 18:59 33.968317 -118.419530 313 3995ft 99kts
05-Nov-19 19:00 33.988659 -118.441958 322 3995ft 99kts
05-Nov-19 19:01 34.011321 -118.461529 322 3995ft 100kts
05-Nov-19 19:02 34.036810 -118.472638 0 3995ft 103kts
05-Nov-19 19:03 34.064952 -118.477118 346 3995ft 102kts
05-Nov-19 19:04 34.089039 -118.493917 316 3998ft 100kts
05-Nov-19 19:05 34.109680 -118.516562 316 4012ft 100kts
05-Nov-19 19:06 34.123629 -118.542371 293 4253ft 87kts
05-Nov-19 19:07 34.137513 -118.569692 309 4484ft 114kts
05-Nov-19 19:08 34.159041 -118.600540 310 4436ft 108kts
05-Nov-19 19:09 34.177059 -118.626464 305 4456ft 99kts
05-Nov-19 19:10 34.192251 -118.653723 303 4467ft 99kts
05-Nov-19 19:11 34.207652 -118.681667 303 4476ft 100kts
05-Nov-19 19:12 34.221067 -118.710804 271 4486ft 100kts
05-Nov-19 19:13 34.209626 -118.739184 219 4481ft 103kts
05-Nov-19 19:14 34.198669 -118.765301 317 4472ft 100kts
05-Nov-19 19:15 34.216038 -118.748110 72 4482ft 103kts
05-Nov-19 19:16 34.220730 -118.713326 89 4308ft 109kts
05-Nov-19 19:17 34.222278 -118.676301 86 3842ft 109kts
05-Nov-19 19:18 34.223434 -118.639922 88 3863ft 108kts
05-Nov-19 19:19 34.224100 -118.603521 88 3872ft 102kts
05-Nov-19 19:20 34.224313 -118.569935 90 3382ft 99kts
05-Nov-19 19:21 34.224039 -118.537653 89 3202ft 93kts
05-Nov-19 19:22 34.223780 -118.506177 90 3202ft 93kts
05-Nov-19 19:23 34.221599 -118.475827 99 2855ft 94kts
05-Nov-19 19:24 34.215564 -118.438313 102 2309ft 130kts
05-Nov-19 19:25 34.205612 -118.394082 118 1410ft 116kts
05-Nov-19 19:26 34.197862 -118.364652 94 746ft 60kts
05-Nov-19 19:27 34.198879 -118.358725 268 734ft 12kts
05-Nov-19 19:28 34.199405 -118.360717 320 734ft 0kts
05-Nov-19 19:29 34.199405 -118.360717 320 734ft 0kts
05-Nov-19 19:30 34.199405 -118.360717 320 734ft 0kts
05-Nov-19 19:31 34.199405 -118.360717 320 734ft 0kts

Navigation Log

Ident Type
Flight plan parsing failed, navigation log unavailable